Time;durP1;ratioP1;P1;durP2;ratioP2;P2;SDS_P1;SDS_P2;PMS_P1;PMS_P2;Temp;Humidity;BMP_temperature;BMP_pressure;BME280_temperature;BME280_humidity;BME280_pressure;Samples;Min_cycle;Max_cycle;Signal;HPM_P1;HPM_P2
2022/10/07 00:02:10;;;;;;;21.97;9.60;;;9.40;91.10;;;;;;5013765;28;20880;-71
2022/10/07 00:04:36;;;;;;;24.67;9.20;;;9.40;92.10;;;;;;5013840;28;20376;-71
2022/10/07 00:07:02;;;;;;;22.83;9.43;;;9.30;93.20;;;;;;5014531;28;20389;-71
2022/10/07 00:09:27;;;;;;;21.30;8.50;;;9.30;94.00;;;;;;5014113;28;20393;-70
2022/10/07 00:11:53;;;;;;;20.60;9.27;;;9.20;94.00;;;;;;5013375;28;20415;-72
2022/10/07 00:14:19;;;;;;;21.85;8.80;;;9.30;93.40;;;;;;5012073;28;20460;-73
2022/10/07 00:16:44;;;;;;;17.77;8.73;;;9.30;93.60;;;;;;5013237;28;20923;-73
2022/10/07 00:19:11;;;;;;;26.52;9.90;;;9.30;93.40;;;;;;5013339;28;20446;-73
2022/10/07 00:21:38;;;;;;;24.30;9.10;;;9.20;95.00;;;;;;5012960;28;20373;-72
2022/10/07 00:24:05;;;;;;;21.60;9.63;;;9.20;94.60;;;;;;5013250;28;20385;-72
2022/10/07 00:26:33;;;;;;;25.25;9.10;;;9.20;94.20;;;;;;5013172;28;20424;-72
2022/10/07 00:28:59;;;;;;;20.55;9.93;;;9.20;94.80;;;;;;5011980;28;20468;-72
2022/10/07 00:31:27;;;;;;;22.90;10.25;;;9.10;96.30;;;;;;5012958;28;20392;-72
2022/10/07 00:33:54;;;;;;;26.30;11.63;;;9.10;96.90;;;;;;5011594;28;20532;-73
2022/10/07 00:36:23;;;;;;;26.23;10.75;;;9.10;97.80;;;;;;5011493;28;20408;-72
2022/10/07 00:38:57;;;;;;;22.42;9.90;;;9.10;98.60;;;;;;5012830;28;20483;-72
2022/10/07 00:41:29;;;;;;;21.35;10.13;;;9.10;97.60;;;;;;5012412;28;20479;-72
2022/10/07 00:43:54;;;;;;;24.10;10.20;;;9.10;98.10;;;;;;5012866;28;20385;-72
2022/10/07 00:46:38;;;;;;;24.47;9.80;;;9.00;98.50;;;;;;5012846;28;20423;-71
2022/10/07 00:49:09;;;;;;;22.33;9.60;;;9.00;99.20;;;;;;5012653;28;20400;-72
2022/10/07 00:51:36;;;;;;;30.20;9.30;;;9.00;99.90;;;;;;5012778;28;20400;-71
2022/10/07 00:54:05;;;;;;;19.70;8.68;;;9.00;99.90;;;;;;5012636;28;20543;-72
2022/10/07 00:56:32;;;;;;;16.10;8.20;;;9.00;99.70;;;;;;5012780;28;20419;-72
2022/10/07 00:58:58;;;;;;;23.25;8.20;;;9.10;98.60;;;;;;5013022;28;20852;-72
2022/10/07 01:01:25;;;;;;;22.45;9.00;;;9.10;98.20;;;;;;5012129;28;20396;-72
2022/10/07 01:03:51;;;;;;;21.60;8.20;;;9.00;98.80;;;;;;5011057;28;20448;-72
2022/10/07 01:06:17;;;;;;;22.92;8.75;;;9.00;98.20;;;;;;5011147;28;20396;-72
2022/10/07 01:08:45;;;;;;;17.10;8.30;;;9.00;97.50;;;;;;5011114;28;20401;-73
2022/10/07 01:11:41;;;;;;;16.20;6.95;;;9.00;96.80;;;;;;5011535;28;20405;-72
2022/10/07 01:14:57;;;;;;;19.67;7.07;;;9.00;96.50;;;;;;5015318;28;20407;-71
2022/10/07 01:17:34;;;;;;;21.85;7.80;;;9.00;96.60;;;;;;4951070;28;20417;-72
2022/10/07 01:20:23;;;;;;;19.02;7.20;;;8.90;98.00;;;;;;4952726;29;20390;-72
2022/10/07 01:23:26;;;;;;;18.30;7.30;;;9.00;96.80;;;;;;4986349;28;20696;-72
2022/10/07 01:26:10;;;;;;;19.00;7.13;;;8.90;97.40;;;;;;5009271;28;20492;-71
2022/10/07 01:28:47;;;;;;;19.95;7.60;;;8.90;97.70;;;;;;5004686;28;20797;-73
2022/10/07 01:31:18;;;;;;;17.02;6.75;;;8.90;98.00;;;;;;5013560;28;20423;-72
2022/10/07 01:33:45;;;;;;;20.30;7.03;;;8.90;98.60;;;;;;5013316;28;20387;-73
2022/10/07 01:36:16;;;;;;;16.42;8.07;;;8.80;99.80;;;;;;5013341;28;20443;-72
2022/10/07 01:38:48;;;;;;;12.45;6.57;;;8.90;98.70;;;;;;5013001;28;20405;-72
2022/10/07 01:41:17;;;;;;;17.23;7.00;;;8.90;97.50;;;;;;5012520;28;20412;-72
2022/10/07 01:43:44;;;;;;;18.23;7.00;;;8.80;97.70;;;;;;5012906;28;20397;-72
2022/10/07 01:46:17;;;;;;;13.48;6.95;;;8.90;97.40;;;;;;5011986;28;20484;-72
2022/10/07 01:48:45;;;;;;;16.70;7.73;;;8.90;95.30;;;;;;5010507;28;20400;-72
2022/10/07 01:51:12;;;;;;;18.98;7.32;;;8.90;95.30;;;;;;5012380;28;20463;-73
2022/10/07 01:54:03;;;;;;;17.02;7.45;;;8.80;95.00;;;;;;5010579;28;20393;-72
2022/10/07 01:56:58;;;;;;;18.63;7.07;;;8.80;96.10;;;;;;5011756;28;20400;-72
2022/10/07 01:59:51;;;;;;;18.92;6.57;;;8.80;96.40;;;;;;5002891;28;20432;-74
2022/10/07 02:02:40;;;;;;;17.40;6.95;;;8.80;94.30;;;;;;5010821;28;20389;-72
2022/10/07 02:05:27;;;;;;;19.25;6.55;;;8.80;95.80;;;;;;5011769;28;20739;-71
2022/10/07 02:08:10;;;;;;;10.73;5.97;;;8.70;96.20;;;;;;5012059;28;20754;-74
2022/10/07 02:10:47;;;;;;;17.52;6.40;;;8.80;95.20;;;;;;5012291;28;20425;-73
2022/10/07 02:13:21;;;;;;;15.52;7.10;;;8.80;94.60;;;;;;5012334;28;20897;-72
2022/10/07 02:16:05;;;;;;;15.50;6.70;;;8.70;94.80;;;;;;5011893;28;20412;-73
2022/10/07 02:18:34;;;;;;;16.73;6.47;;;8.70;95.00;;;;;;5011834;28;20491;-73
2022/10/07 02:21:03;;;;;;;16.17;6.63;;;8.70;96.50;;;;;;5010528;28;20388;-73
2022/10/07 02:23:33;;;;;;;15.02;7.13;;;8.70;96.70;;;;;;5011984;28;20384;-72
2022/10/07 02:25:59;;;;;;;16.13;6.20;;;8.70;96.90;;;;;;5012000;28;20508;-73
2022/10/07 02:28:26;;;;;;;17.13;6.32;;;8.80;95.00;;;;;;5012111;28;20392;-73
2022/10/07 02:30:56;;;;;;;12.37;5.57;;;8.80;93.30;;;;;;5010756;28;20397;-73
2022/10/07 02:33:25;;;;;;;11.73;6.73;;;8.80;92.90;;;;;;5012257;28;20396;-73
2022/10/07 02:36:00;;;;;;;14.63;6.28;;;8.90;93.40;;;;;;5012662;28;20975;-74
2022/10/07 02:38:26;;;;;;;21.70;6.72;;;9.00;92.20;;;;;;5012390;28;20399;-74
2022/10/07 02:41:34;;;;;;;17.48;6.40;;;9.10;89.80;;;;;;5012347;28;20380;-74
2022/10/07 02:44:24;;;;;;;16.13;7.97;;;9.20;88.70;;;;;;4995422;28;20878;-73
2022/10/07 02:47:05;;;;;;;16.55;5.82;;;9.20;88.10;;;;;;5013689;28;20385;-74
2022/10/07 02:49:37;;;;;;;14.25;6.60;;;9.20;86.60;;;;;;5013628;28;20479;-74
2022/10/07 02:52:06;;;;;;;16.10;7.27;;;9.20;86.20;;;;;;5028535;28;20393;-72
2022/10/07 02:54:44;;;;;;;16.10;6.30;;;9.30;85.50;;;;;;5034535;28;20730;-72
2022/10/07 02:57:14;;;;;;;16.38;5.95;;;9.30;84.80;;;;;;5034005;28;20413;-72
2022/10/07 02:59:41;;;;;;;15.38;6.50;;;9.40;84.00;;;;;;5033045;28;20389;-70
2022/10/07 03:02:14;;;;;;;15.77;6.32;;;9.40;82.10;;;;;;5026521;28;20385;-72
2022/10/07 03:04:41;;;;;;;14.18;6.20;;;9.40;82.40;;;;;;5017713;28;20376;-72
2022/10/07 03:07:07;;;;;;;16.42;6.40;;;9.40;82.00;;;;;;5016560;28;20450;-73
2022/10/07 03:09:33;;;;;;;15.88;6.38;;;9.30;82.20;;;;;;5015659;28;20393;-72
2022/10/07 03:11:58;;;;;;;17.98;6.40;;;9.20;83.40;;;;;;5016256;28;20432;-73
2022/10/07 03:14:24;;;;;;;18.40;6.15;;;9.20;85.20;;;;;;5015893;28;20426;-73
2022/10/07 03:16:51;;;;;;;13.90;6.22;;;9.20;84.80;;;;;;5016583;28;20396;-72
2022/10/07 03:19:17;;;;;;;16.80;6.50;;;9.00;85.90;;;;;;5015100;28;20869;-74
2022/10/07 03:21:42;;;;;;;16.50;6.80;;;9.00;86.30;;;;;;5014617;28;20389;-72
2022/10/07 03:24:08;;;;;;;16.27;5.40;;;8.90;88.50;;;;;;5015230;28;20377;-72
2022/10/07 03:26:34;;;;;;;14.23;6.30;;;9.00;88.80;;;;;;5014592;28;20789;-73
2022/10/07 03:29:00;;;;;;;18.77;6.50;;;8.90;90.10;;;;;;5015150;28;20411;-72
2022/10/07 03:31:26;;;;;;;17.83;6.20;;;8.80;90.30;;;;;;5015759;28;20381;-72
2022/10/07 03:33:54;;;;;;;20.50;7.28;;;8.80;91.90;;;;;;5016101;28;20450;-74
2022/10/07 03:36:20;;;;;;;16.73;6.45;;;8.70;93.60;;;;;;5016159;28;20730;-74
2022/10/07 03:38:45;;;;;;;17.45;6.30;;;8.70;94.20;;;;;;5016022;28;20435;-74
2022/10/07 03:41:11;;;;;;;16.60;5.70;;;8.60;95.10;;;;;;5014972;28;20897;-74
2022/10/07 03:43:36;;;;;;;16.17;6.47;;;8.60;94.30;;;;;;5014372;28;20446;-71
2022/10/07 03:46:02;;;;;;;16.53;5.83;;;8.60;94.60;;;;;;5014488;28;20389;-72
2022/10/07 03:48:29;;;;;;;18.37;7.00;;;8.60;95.80;;;;;;5027301;23;20451;-74
2022/10/07 03:50:56;;;;;;;14.10;6.32;;;8.60;95.50;;;;;;5013479;28;20753;-74
2022/10/07 03:53:23;;;;;;;13.15;6.00;;;8.60;96.10;;;;;;5013534;28;20454;-74
2022/10/07 03:55:48;;;;;;;15.55;6.65;;;8.60;95.90;;;;;;5013364;28;20409;-74
2022/10/07 03:58:14;;;;;;;13.97;5.73;;;8.50;96.40;;;;;;5013393;28;20810;-74
2022/10/07 04:00:40;;;;;;;18.43;6.27;;;8.50;95.80;;;;;;5013734;28;20896;-74
2022/10/07 04:03:06;;;;;;;12.45;6.57;;;8.50;96.70;;;;;;5014274;28;20862;-75
2022/10/07 04:05:33;;;;;;;15.50;6.23;;;8.50;98.30;;;;;;5014327;28;20832;-73
2022/10/07 04:07:59;;;;;;;16.60;7.20;;;8.60;96.20;;;;;;5013107;28;20836;-76
2022/10/07 04:10:24;;;;;;;16.48;7.28;;;8.40;97.40;;;;;;5013285;28;20385;-73
2022/10/07 04:12:51;;;;;;;19.02;6.50;;;8.40;99.00;;;;;;5012865;28;20956;-74
2022/10/07 04:15:17;;;;;;;15.50;6.78;;;8.30;99.90;;;;;;5014783;28;20492;-75
2022/10/07 04:17:44;;;;;;;15.03;6.57;;;8.30;99.90;;;;;;5011814;28;20446;-74
2022/10/07 04:20:11;;;;;;;16.67;7.32;;;8.30;99.90;;;;;;5012865;28;20916;-74
2022/10/07 04:22:37;;;;;;;18.33;6.90;;;8.30;99.90;;;;;;5013231;28;20392;-76
2022/10/07 04:27:56;;;;;;;18.30;7.00;;;8.30;99.90;;;;;;5015674;28;20753;-74
2022/10/07 04:30:23;;;;;;;14.18;6.75;;;8.20;99.90;;;;;;5014907;28;20460;-74
2022/10/07 04:32:49;;;;;;;14.15;6.57;;;8.20;99.90;;;;;;5012643;28;20381;-74
2022/10/07 04:35:19;;;;;;;16.00;7.10;;;8.20;99.90;;;;;;5012758;28;20408;-74
2022/10/07 04:37:48;;;;;;;18.00;7.43;;;8.20;99.90;;;;;;5012335;28;20381;-75
2022/10/07 04:40:14;;;;;;;12.27;6.10;;;8.30;99.90;;;;;;5012751;28;20666;-74
2022/10/07 04:45:24;;;;;;;16.90;6.60;;;8.20;99.90;;;;;;5012740;28;20384;-75
2022/10/07 04:47:50;;;;;;;16.02;6.90;;;8.20;99.90;;;;;;5012068;28;20385;-75
2022/10/07 04:50:16;;;;;;;15.82;6.40;;;8.20;99.90;;;;;;5012412;28;20397;-74
2022/10/07 04:52:42;;;;;;;20.25;6.50;;;8.20;99.90;;;;;;5012274;28;20498;-74
2022/10/07 04:55:11;;;;;;;12.10;6.40;;;8.20;99.90;;;;;;5012313;28;20543;-74
2022/10/07 04:57:37;;;;;;;16.65;6.93;;;8.20;99.90;;;;;;5012183;28;20384;-74
2022/10/07 05:00:03;;;;;;;15.07;5.80;;;8.10;99.90;;;;;;5012152;28;20723;-74
2022/10/07 05:02:29;;;;;;;19.52;7.10;;;8.10;99.90;;;;;;5011883;28;20385;-74
2022/10/07 05:04:54;;;;;;;21.53;6.13;;;8.10;99.90;;;;;;5012221;28;20476;-74
2022/10/07 05:07:20;;;;;;;16.33;6.70;;;8.10;99.90;;;;;;5011884;28;20447;-74
2022/10/07 05:09:45;;;;;;;13.30;6.10;;;8.10;99.90;;;;;;5011799;28;20396;-74
2022/10/07 05:12:11;;;;;;;22.40;7.00;;;8.10;99.90;;;;;;5011802;28;20399;-75
2022/10/07 05:14:37;;;;;;;16.30;6.20;;;8.20;99.90;;;;;;5011497;28;20390;-75
2022/10/07 05:17:03;;;;;;;14.77;6.20;;;8.20;99.90;;;;;;5010409;28;20870;-75
2022/10/07 05:19:29;;;;;;;12.93;5.97;;;8.10;99.90;;;;;;5011609;28;20825;-75
2022/10/07 05:21:55;;;;;;;18.30;6.90;;;8.10;99.90;;;;;;5011533;28;20759;-75
2022/10/07 05:24:20;;;;;;;15.50;6.90;;;8.10;99.90;;;;;;5011888;28;20694;-76
2022/10/07 05:26:46;;;;;;;13.30;6.23;;;8.10;99.90;;;;;;5011622;28;20393;-74
2022/10/07 05:29:12;;;;;;;16.37;6.70;;;8.10;99.90;;;;;;5011489;28;20451;-74
2022/10/07 05:31:37;;;;;;;18.40;6.80;;;8.10;99.90;;;;;;5011406;28;20506;-75
2022/10/07 05:34:03;;;;;;;16.08;7.07;;;8.10;99.90;;;;;;5011686;28;20897;-75
2022/10/07 05:36:29;;;;;;;15.82;6.93;;;8.10;99.90;;;;;;5010280;28;20411;-75
2022/10/07 05:38:56;;;;;;;17.63;6.75;;;8.10;99.90;;;;;;5011328;28;20739;-75
2022/10/07 05:41:23;;;;;;;16.65;7.40;;;8.20;99.90;;;;;;5011389;28;20389;-74
2022/10/07 05:43:49;;;;;;;15.27;7.40;;;8.10;99.90;;;;;;5011812;28;20723;-74
2022/10/07 05:46:16;;;;;;;16.30;6.80;;;8.00;99.90;;;;;;5011791;28;20465;-74
2022/10/07 05:48:50;;;;;;;16.92;7.53;;;8.10;99.90;;;;;;5010897;28;20432;-73
2022/10/07 05:51:17;;;;;;;19.25;8.05;;;8.10;99.90;;;;;;5011512;28;20484;-74
2022/10/07 05:53:45;;;;;;;15.57;6.97;;;8.10;99.90;;;;;;5011322;28;20943;-73
2022/10/07 05:56:18;;;;;;;18.15;7.38;;;8.10;99.90;;;;;;5011796;28;20491;-74
2022/10/07 05:58:44;;;;;;;21.15;7.20;;;8.20;99.90;;;;;;5011095;28;20757;-74
2022/10/07 06:01:16;;;;;;;21.13;7.20;;;8.20;99.90;;;;;;5010916;28;20389;-73
2022/10/07 06:03:47;;;;;;;16.33;6.43;;;8.20;99.90;;;;;;5011176;28;20431;-75
2022/10/07 06:06:12;;;;;;;14.70;6.57;;;8.20;99.90;;;;;;5011338;28;20388;-75
2022/10/07 06:08:38;;;;;;;17.33;6.93;;;8.20;99.90;;;;;;5009463;28;20391;-75
2022/10/07 06:13:50;;;;;;;13.83;6.63;;;8.30;99.60;;;;;;5011925;28;20928;-75
2022/10/07 06:16:16;;;;;;;15.35;6.95;;;8.30;99.80;;;;;;5013262;28;20997;-76
2022/10/07 06:18:41;;;;;;;19.13;8.10;;;8.30;99.60;;;;;;5011903;28;20760;-75
2022/10/07 06:21:07;;;;;;;18.30;8.00;;;8.40;98.20;;;;;;5016566;28;20385;-74
2022/10/07 06:23:34;;;;;;;16.17;7.73;;;8.40;97.50;;;;;;5013694;28;20392;-74
2022/10/07 06:26:02;;;;;;;14.15;7.70;;;8.40;96.50;;;;;;5010775;28;20487;-76
2022/10/07 06:28:36;;;;;;;14.93;7.68;;;8.50;96.40;;;;;;5014803;28;20385;-75
2022/10/07 06:31:04;;;;;;;17.03;7.33;;;8.50;94.90;;;;;;5014940;28;20400;-74
2022/10/07 06:33:30;;;;;;;20.55;7.43;;;8.50;94.60;;;;;;5014827;28;20384;-74
2022/10/07 06:35:55;;;;;;;20.15;7.80;;;8.60;92.60;;;;;;5014909;28;20413;-74
2022/10/07 06:38:21;;;;;;;18.38;7.60;;;8.70;91.20;;;;;;5013454;28;20400;-75
2022/10/07 06:41:00;;;;;;;18.02;8.18;;;8.70;89.40;;;;;;5013452;28;20866;-74
2022/10/07 06:43:26;;;;;;;15.68;7.50;;;8.70;89.50;;;;;;5014894;28;20389;-74
2022/10/07 06:45:54;;;;;;;17.27;8.10;;;8.80;88.80;;;;;;5014457;28;20400;-75
2022/10/07 06:48:20;;;;;;;30.70;9.90;;;8.90;87.90;;;;;;5017519;28;20396;-73
2022/10/07 06:50:53;;;;;;;20.83;9.18;;;8.90;87.10;;;;;;5014225;28;20397;-76
2022/10/07 06:53:19;;;;;;;21.55;8.02;;;9.00;85.00;;;;;;5014567;28;20395;-76
2022/10/07 06:55:45;;;;;;;17.65;7.75;;;9.10;85.70;;;;;;5014922;28;20408;-75
2022/10/07 06:58:11;;;;;;;18.52;7.80;;;9.20;83.70;;;;;;5015958;28;20393;-75
2022/10/07 07:00:37;;;;;;;20.03;8.70;;;9.20;82.90;;;;;;5017546;28;20389;-75
2022/10/07 07:03:03;;;;;;;21.73;8.57;;;9.30;83.30;;;;;;5014397;28;20392;-75
2022/10/07 07:05:38;;;;;;;19.00;8.90;;;9.30;81.20;;;;;;5014086;28;20409;-76
2022/10/07 07:08:04;;;;;;;20.65;7.97;;;9.40;79.80;;;;;;5013903;28;20857;-74
2022/10/07 07:10:30;;;;;;;16.17;8.03;;;9.40;79.30;;;;;;5014432;28;20444;-74
2022/10/07 07:12:56;;;;;;;18.60;8.60;;;9.50;78.70;;;;;;5013929;28;20392;-74
2022/10/07 07:15:22;;;;;;;22.35;8.10;;;9.60;78.20;;;;;;5013963;28;20442;-75
2022/10/07 07:17:48;;;;;;;22.65;8.55;;;9.70;76.80;;;;;;5013935;28;20472;-75
2022/10/07 07:20:14;;;;;;;14.40;7.55;;;9.70;76.40;;;;;;5013992;28;20417;-75
2022/10/07 07:22:42;;;;;;;17.35;8.38;;;9.80;74.10;;;;;;5013547;28;20388;-74
2022/10/07 07:25:10;;;;;;;18.77;7.30;;;9.90;73.60;;;;;;5013860;28;20961;-75
2022/10/07 07:27:36;;;;;;;22.05;7.97;;;10.00;73.10;;;;;;5013704;28;20392;-75
2022/10/07 07:30:04;;;;;;;14.87;7.30;;;10.10;72.50;;;;;;5014091;28;20408;-74
2022/10/07 07:32:29;;;;;;;19.58;7.35;;;10.20;70.70;;;;;;5013535;28;20392;-75
2022/10/07 07:34:56;;;;;;;19.17;8.20;;;10.20;68.40;;;;;;5013492;28;20427;-74
2022/10/07 07:37:23;;;;;;;23.73;7.82;;;10.20;69.40;;;;;;5013301;28;20381;-75
2022/10/07 07:39:49;;;;;;;16.95;7.50;;;10.30;67.80;;;;;;5013478;28;20878;-76
2022/10/07 07:42:14;;;;;;;16.30;7.22;;;10.40;67.50;;;;;;5013175;28;20412;-75
2022/10/07 07:44:40;;;;;;;19.23;7.72;;;10.50;66.70;;;;;;5013551;28;20388;-75
2022/10/07 07:47:07;;;;;;;18.60;6.70;;;10.60;66.20;;;;;;5013629;28;20475;-75
2022/10/07 07:49:34;;;;;;;19.20;7.82;;;10.60;64.50;;;;;;5013111;28;20428;-74
2022/10/07 07:52:00;;;;;;;19.85;7.75;;;10.80;66.20;;;;;;5013499;28;20393;-74
2022/10/07 07:54:26;;;;;;;43.13;10.13;;;10.80;64.80;;;;;;5013315;28;20392;-75
2022/10/07 07:56:56;;;;;;;26.13;9.00;;;10.90;64.90;;;;;;5013151;28;20400;-75
2022/10/07 07:59:22;;;;;;;19.40;7.20;;;11.00;65.20;;;;;;5013212;28;20741;-75
2022/10/07 08:01:48;;;;;;;16.42;7.70;;;11.10;63.10;;;;;;5013034;28;20432;-74
2022/10/07 08:04:14;;;;;;;23.63;7.70;;;11.30;60.10;;;;;;5013300;28;20424;-75
2022/10/07 08:06:40;;;;;;;20.67;8.20;;;11.40;60.10;;;;;;5014021;28;20397;-74
2022/10/07 08:09:06;;;;;;;17.30;6.97;;;11.50;58.30;;;;;;5013731;28;20450;-75
2022/10/07 08:11:31;;;;;;;20.63;7.50;;;11.60;57.00;;;;;;5013547;28;20387;-74
2022/10/07 08:13:58;;;;;;;19.70;8.23;;;11.60;56.80;;;;;;5013478;28;20403;-75
2022/10/07 08:16:27;;;;;;;18.77;7.00;;;11.70;57.30;;;;;;5014970;28;20471;-75
2022/10/07 08:18:54;;;;;;;20.83;7.80;;;11.80;56.30;;;;;;5016136;28;20750;-74
2022/10/07 08:21:22;;;;;;;23.20;7.90;;;11.90;55.00;;;;;;5016441;28;20393;-76
2022/10/07 08:23:51;;;;;;;17.53;7.33;;;12.10;56.10;;;;;;5015124;28;20389;-75
2022/10/07 08:26:17;;;;;;;17.58;7.28;;;12.20;53.90;;;;;;5013604;28;20824;-76
2022/10/07 08:28:42;;;;;;;25.77;7.80;;;12.30;52.70;;;;;;5014621;28;20392;-76
2022/10/07 08:31:12;;;;;;;22.67;7.20;;;12.30;53.00;;;;;;5013257;28;20869;-75
2022/10/07 08:33:41;;;;;;;20.48;7.20;;;12.40;52.70;;;;;;5013202;28;20439;-75
2022/10/07 08:36:10;;;;;;;21.70;7.75;;;12.50;51.80;;;;;;5012736;28;20877;-74
2022/10/07 08:38:38;;;;;;;18.77;8.07;;;12.50;53.40;;;;;;5012549;28;20927;-73
2022/10/07 08:41:33;;;;;;;26.45;7.82;;;12.70;51.80;;;;;;5012366;28;20429;-74
2022/10/07 08:44:22;;;;;;;29.75;8.20;;;12.80;50.50;;;;;;5002868;28;20392;-74
2022/10/07 08:47:09;;;;;;;22.73;7.40;;;12.90;50.40;;;;;;5012197;28;20459;-75
2022/10/07 08:50:16;;;;;;;25.85;7.90;;;13.10;48.10;;;;;;5011385;28;20423;-74
2022/10/07 08:53:01;;;;;;;19.45;7.10;;;13.10;48.20;;;;;;5012370;28;20420;-74
2022/10/07 08:56:02;;;;;;;19.40;8.50;;;13.20;47.50;;;;;;5012102;28;20793;-74
2022/10/07 08:59:09;;;;;;;23.63;8.10;;;13.30;47.90;;;;;;5012508;28;20669;-74
2022/10/07 09:01:53;;;;;;;20.23;7.03;;;13.50;46.50;;;;;;5011843;28;20920;-74
2022/10/07 09:04:40;;;;;;;20.65;7.18;;;13.60;45.00;;;;;;5012939;28;20376;-75
2022/10/07 09:07:19;;;;;;;22.42;7.25;;;13.70;43.80;;;;;;5013508;28;20381;-74
2022/10/07 09:09:52;;;;;;;19.17;7.25;;;13.70;43.80;;;;;;5015199;28;20874;-74
2022/10/07 09:12:23;;;;;;;25.60;7.68;;;13.90;44.30;;;;;;5012900;28;20476;-75
2022/10/07 09:14:54;;;;;;;23.42;7.30;;;13.90;43.50;;;;;;5012050;28;20958;-74
2022/10/07 09:17:26;;;;;;;20.02;7.00;;;13.90;43.00;;;;;;5012185;28;20396;-74
2022/10/07 09:19:59;;;;;;;16.55;6.80;;;14.20;42.60;;;;;;5011849;28;20723;-74
2022/10/07 09:22:35;;;;;;;21.77;6.97;;;14.20;41.00;;;;;;5012753;28;20381;-74
2022/10/07 09:25:20;;;;;;;18.35;6.60;;;14.30;41.10;;;;;;5014099;28;20409;-74
2022/10/07 09:27:47;;;;;;;28.63;7.70;;;14.50;41.40;;;;;;5013298;28;20383;-75
2022/10/07 09:30:14;;;;;;;16.48;6.93;;;14.60;40.50;;;;;;5012433;28;20443;-74
2022/10/07 09:32:43;;;;;;;18.33;6.47;;;14.60;41.00;;;;;;5011734;28;20881;-74
2022/10/07 09:35:18;;;;;;;22.52;6.43;;;14.70;40.00;;;;;;5011737;28;20444;-75
2022/10/07 09:37:55;;;;;;;19.83;5.63;;;14.80;39.20;;;;;;5011383;28;20403;-75
2022/10/07 09:40:25;;;;;;;21.73;5.93;;;14.90;38.50;;;;;;5011221;28;20495;-75
2022/10/07 09:42:53;;;;;;;21.63;6.47;;;14.90;38.80;;;;;;5011465;28;20750;-74
2022/10/07 09:45:30;;;;;;;15.48;5.40;;;15.00;39.10;;;;;;5011802;28;20423;-75
2022/10/07 09:47:59;;;;;;;18.35;5.53;;;15.10;38.60;;;;;;5011251;28;20471;-75
2022/10/07 09:50:37;;;;;;;19.98;5.70;;;15.10;37.80;;;;;;5043109;23;20523;-72
2022/10/07 09:53:15;;;;;;;17.27;5.70;;;15.20;38.30;;;;;;5028862;28;20388;-72
2022/10/07 09:55:42;;;;;;;18.33;5.35;;;15.40;37.20;;;;;;5027108;28;20401;-73
2022/10/07 09:58:26;;;;;;;18.92;5.70;;;15.30;37.00;;;;;;5018027;28;20896;-72
2022/10/07 10:00:54;;;;;;;20.88;5.90;;;15.40;37.00;;;;;;4992341;28;20933;-72
2022/10/07 10:03:27;;;;;;;16.98;5.80;;;15.50;37.40;;;;;;4992781;28;20394;-73
2022/10/07 10:06:01;;;;;;;21.15;5.78;;;15.60;36.50;;;;;;4991470;28;20413;-73
2022/10/07 10:08:35;;;;;;;20.38;5.60;;;15.80;35.90;;;;;;4992542;28;20423;-73
2022/10/07 10:11:19;;;;;;;18.65;5.25;;;16.00;35.30;;;;;;4992413;28;20401;-72
2022/10/07 10:13:47;;;;;;;18.70;6.05;;;16.00;34.40;;;;;;4992375;28;20397;-72
2022/10/07 10:16:32;;;;;;;17.23;5.37;;;16.00;34.30;;;;;;4991071;28;20788;-73
2022/10/07 10:19:01;;;;;;;20.00;5.45;;;16.20;34.40;;;;;;4991983;28;20398;-73
2022/10/07 10:21:34;;;;;;;17.73;5.68;;;16.10;34.20;;;;;;4991688;28;20417;-73
2022/10/07 10:26:24;;;;;;;17.40;5.60;;;16.20;34.50;;;;;;4991798;28;20386;-73
2022/10/07 10:27:06;;;;;;;19.20;6.35;;;16.20;34.80;;;;;;4991818;28;20403;-74
2022/10/07 10:29:51;;;;;;;15.50;5.20;;;16.30;34.20;;;;;;4991649;28;20386;-72
2022/10/07 10:32:35;;;;;;;19.10;6.00;;;16.40;33.90;;;;;;4993012;28;20899;-73
2022/10/07 10:35:24;;;;;;;19.67;5.80;;;16.50;34.60;;;;;;4991655;28;20414;-73
2022/10/07 10:37:56;;;;;;;19.13;5.90;;;16.50;34.10;;;;;;4991631;28;20393;-72
2022/10/07 10:40:39;;;;;;;21.67;5.72;;;16.60;34.30;;;;;;4991784;28;20378;-73
2022/10/07 10:43:33;;;;;;;16.55;5.25;;;16.60;33.00;;;;;;4990633;28;20414;-73
2022/10/07 10:46:24;;;;;;;16.13;5.20;;;16.70;33.00;;;;;;4991927;28;20414;-73
2022/10/07 10:49:13;;;;;;;17.53;5.23;;;16.90;33.10;;;;;;4992680;28;20475;-72
2022/10/07 10:52:01;;;;;;;14.57;4.28;;;16.90;32.60;;;;;;4991650;28;20386;-72
2022/10/07 10:54:31;;;;;;;17.13;4.70;;;16.90;32.30;;;;;;4991568;28;20394;-72
2022/10/07 10:57:00;;;;;;;17.05;5.00;;;17.00;32.00;;;;;;4992326;28;20413;-72
2022/10/07 10:59:44;;;;;;;16.50;5.05;;;17.10;32.00;;;;;;4992249;28;20481;-72
2022/10/07 11:02:24;;;;;;;18.60;4.90;;;17.40;31.20;;;;;;4991886;28;20386;-72
2022/10/07 11:05:16;;;;;;;15.43;4.20;;;17.50;31.00;;;;;;4996328;28;20386;-72
2022/10/07 11:07:49;;;;;;;18.50;4.20;;;17.60;29.40;;;;;;4996746;28;20399;-73
2022/10/07 11:10:21;;;;;;;15.23;4.30;;;17.70;29.40;;;;;;4991648;28;20363;-71
2022/10/07 11:12:53;;;;;;;20.07;6.30;;;17.80;29.00;;;;;;4992352;28;20398;-73
2022/10/07 11:15:34;;;;;;;20.58;4.65;;;17.90;29.20;;;;;;4995502;28;20413;-73
2022/10/07 11:18:06;;;;;;;18.70;4.63;;;17.80;28.60;;;;;;4996043;28;20398;-73
2022/10/07 11:20:46;;;;;;;18.50;4.10;;;17.70;28.90;;;;;;4995994;28;20386;-72
2022/10/07 11:23:21;;;;;;;23.60;4.40;;;17.80;27.70;;;;;;4995979;28;20382;-72
2022/10/07 11:26:00;;;;;;;18.25;3.95;;;17.80;25.70;;;;;;4995922;28;20387;-72
2022/10/07 11:28:28;;;;;;;17.05;4.05;;;17.80;26.40;;;;;;4995443;28;20401;-72
2022/10/07 11:31:05;;;;;;;15.95;3.75;;;17.80;25.20;;;;;;4994986;28;20449;-72
2022/10/07 11:33:52;;;;;;;20.10;3.88;;;17.90;25.00;;;;;;4995518;28;20747;-73
2022/10/07 11:36:25;;;;;;;11.57;3.90;;;18.10;24.20;;;;;;4995341;28;21008;-73
2022/10/07 11:38:52;;;;;;;14.55;3.70;;;18.20;24.20;;;;;;4994654;28;20395;-72
2022/10/07 11:41:26;;;;;;;21.43;4.20;;;18.50;23.90;;;;;;4994499;28;20409;-71
2022/10/07 11:43:56;;;;;;;15.13;3.30;;;18.70;23.40;;;;;;4995229;28;20462;-73
2022/10/07 11:46:35;;;;;;;19.15;3.60;;;19.10;21.60;;;;;;4995277;28;20393;-72
2022/10/07 11:49:05;;;;;;;22.52;4.40;;;19.30;21.00;;;;;;4995129;28;20399;-73
2022/10/07 11:51:50;;;;;;;15.60;4.20;;;19.40;21.00;;;;;;4994208;28;20409;-72
2022/10/07 11:54:19;;;;;;;20.60;4.30;;;19.40;19.80;;;;;;4994846;28;20393;-72
2022/10/07 11:56:59;;;;;;;18.30;3.95;;;19.20;20.00;;;;;;5002130;28;20434;-72
2022/10/07 11:59:44;;;;;;;18.63;4.33;;;18.90;20.50;;;;;;5001852;28;20906;-72
2022/10/07 12:02:44;;;;;;;17.65;4.00;;;18.80;21.40;;;;;;4994215;28;20387;-74
2022/10/07 12:05:47;;;;;;;20.13;3.97;;;18.90;21.30;;;;;;4973270;28;20427;-73
2022/10/07 12:08:37;;;;;;;16.20;3.65;;;18.90;20.90;;;;;;4974713;28;20398;-72
2022/10/07 12:11:11;;;;;;;14.50;3.70;;;18.90;19.40;;;;;;4993850;28;20398;-72
2022/10/07 12:13:52;;;;;;;15.23;3.27;;;18.80;19.90;;;;;;4993943;28;20485;-73
2022/10/07 12:16:37;;;;;;;15.75;3.67;;;18.80;20.00;;;;;;4994159;28;20417;-73
2022/10/07 12:19:06;;;;;;;15.55;3.80;;;18.70;20.30;;;;;;4993408;28;20453;-73
2022/10/07 12:21:58;;;;;;;13.15;3.60;;;18.80;20.70;;;;;;4993691;28;20386;-73
2022/10/07 12:24:25;;;;;;;16.48;3.88;;;18.80;19.10;;;;;;4977046;28;20443;-73
2022/10/07 12:26:52;;;;;;;22.03;8.07;;;18.60;19.90;;;;;;4993789;28;20478;-73
2022/10/07 12:29:40;;;;;;;16.67;4.75;;;18.60;19.70;;;;;;4993674;28;20390;-74
2022/10/07 12:32:43;;;;;;;18.40;4.45;;;18.70;20.50;;;;;;4986537;28;20398;-74
2022/10/07 12:35:33;;;;;;;19.75;4.10;;;18.80;20.00;;;;;;4993454;28;21021;-72
2022/10/07 12:38:15;;;;;;;20.25;4.22;;;18.90;19.50;;;;;;4994139;28;20391;-73
2022/10/07 12:40:43;;;;;;;15.18;4.10;;;19.00;19.60;;;;;;4993326;28;20390;-72
2022/10/07 12:43:17;;;;;;;13.55;3.13;;;19.00;19.40;;;;;;4993298;28;20386;-73
2022/10/07 12:45:43;;;;;;;17.30;3.90;;;18.90;19.40;;;;;;4993413;28;20795;-74
2022/10/07 12:48:19;;;;;;;15.80;4.17;;;18.90;19.30;;;;;;4992303;28;20398;-74
2022/10/07 12:50:47;;;;;;;18.73;4.30;;;18.90;19.50;;;;;;4993791;28;20402;-72
2022/10/07 12:53:13;;;;;;;14.80;4.30;;;18.90;20.00;;;;;;4993227;28;20390;-72
2022/10/07 12:55:45;;;;;;;16.02;3.95;;;19.00;20.00;;;;;;4993996;28;20741;-74
2022/10/07 13:01:28;;;;;;;11.77;3.20;;;19.00;19.70;;;;;;4993037;28;20381;-72
2022/10/07 13:04:10;;;;;;;23.00;4.32;;;19.10;19.00;;;;;;4991716;28;20398;-74
2022/10/07 13:07:14;;;;;;;14.65;3.70;;;19.10;18.80;;;;;;4992960;28;20433;-73
2022/10/07 13:10:21;;;;;;;11.45;3.60;;;19.20;19.00;;;;;;4992671;28;20739;-72
2022/10/07 13:12:54;;;;;;;16.43;3.70;;;19.10;18.30;;;;;;4992137;28;20469;-72
2022/10/07 13:15:27;;;;;;;15.32;3.90;;;19.10;17.80;;;;;;4992826;28;20405;-72
2022/10/07 13:18:14;;;;;;;16.70;3.95;;;19.10;18.20;;;;;;4992807;28;20446;-72
2022/10/07 13:20:49;;;;;;;15.45;4.20;;;19.10;18.10;;;;;;4993033;28;20433;-73
2022/10/07 13:23:18;;;;;;;16.27;3.90;;;19.30;18.70;;;;;;4992761;28;20390;-73